createdAt,value
2023-04-12T00:02:01.098Z,72.55
2023-04-12T00:07:23.659Z,73.57
2023-04-12T00:12:16.060Z,73.88
2023-04-12T00:17:15.997Z,74.29
2023-04-12T00:22:15.935Z,74.60
2023-04-12T00:27:15.846Z,75.42
2023-04-12T00:32:16.193Z,76.99
2023-04-12T00:37:15.686Z,78.02
2023-04-12T00:42:15.640Z,78.56
2023-04-12T00:47:15.576Z,79.28
2023-04-12T00:52:15.518Z,80.21
2023-04-12T00:57:15.443Z,81.23
2023-04-12T01:02:15.455Z,81.99
2023-04-12T01:07:15.312Z,82.40
2023-04-12T01:12:15.253Z,83.01
2023-04-12T01:17:15.176Z,83.01
2023-04-12T01:22:15.124Z,83.67
2023-04-12T01:27:15.013Z,84.28
2023-04-12T01:32:15.004Z,84.59
2023-04-12T01:37:14.908Z,84.39
2023-04-12T01:42:14.846Z,84.59
2023-04-12T01:47:14.789Z,85.31
2023-04-12T01:52:14.730Z,85.82
2023-04-12T01:57:14.638Z,86.38
2023-04-12T02:02:14.659Z,86.79
2023-04-12T02:07:14.561Z,87.20
2023-04-12T02:12:14.475Z,87.92
2023-04-12T02:17:14.378Z,88.84
2023-04-12T02:22:14.362Z,89.50
2023-04-12T02:27:14.238Z,89.40
2023-04-12T02:32:14.209Z,89.60
2023-04-12T02:37:14.106Z,89.91
2023-04-12T02:42:14.054Z,90.57
2023-04-12T02:47:14.000Z,90.88
2023-04-12T02:52:13.919Z,91.70
2023-04-12T02:57:13.853Z,92.01
2023-04-12T03:02:13.855Z,92.42
2023-04-12T03:07:14.520Z,92.46
2023-04-12T03:12:13.669Z,92.77
2023-04-12T03:17:13.593Z,93.70
2023-04-12T03:22:13.516Z,93.70
2023-04-12T03:27:13.454Z,94.31
2023-04-12T03:32:13.396Z,94.52
2023-04-12T03:37:13.343Z,95.14
2023-04-12T03:42:25.508Z,94.87
2023-04-12T03:47:14.198Z,95.18
2023-04-12T03:52:13.121Z,95.18
2023-04-12T03:57:13.061Z,95.08
2023-04-12T04:02:13.037Z,94.87
2023-04-12T04:07:12.912Z,94.98
2023-04-12T04:12:12.869Z,94.67
2023-04-12T04:17:23.769Z,94.05
2023-04-12T04:22:16.164Z,94.01
2023-04-12T04:27:16.091Z,93.59
2023-04-12T04:32:16.053Z,92.97
2023-04-12T04:37:16.046Z,93.08
2023-04-12T04:42:15.908Z,92.57
2023-04-12T04:47:15.842Z,92.16
2023-04-12T04:52:15.816Z,92.16
2023-04-12T04:57:15.711Z,91.64
2023-04-12T05:02:15.687Z,91.95
2023-04-12T05:07:15.645Z,90.98
2023-04-12T05:12:15.490Z,91.29
2023-04-12T05:17:15.602Z,91.29
2023-04-12T05:22:15.360Z,91.70
2023-04-12T05:27:15.343Z,92.11
2023-04-12T05:32:15.224Z,92.32
2023-04-12T05:37:15.208Z,93.24
2023-04-12T05:42:15.112Z,93.65
2023-04-12T05:47:15.046Z,94.48
2023-04-12T05:52:14.966Z,94.78
2023-04-12T05:57:14.926Z,95.20
2023-04-12T06:02:14.945Z,95.20
2023-04-12T06:07:14.804Z,95.61
2023-04-12T06:12:14.726Z,95.92
2023-04-12T06:17:14.681Z,96.53
2023-04-12T06:22:14.599Z,96.64
2023-04-12T06:27:14.545Z,96.94
2023-04-12T06:32:14.480Z,96.73
2023-04-12T06:37:14.391Z,97.05
2023-04-12T06:42:14.781Z,97.15
2023-04-12T06:47:14.275Z,97.05
2023-04-12T06:52:14.241Z,97.77
2023-04-12T06:57:14.117Z,97.00
2023-04-12T07:02:14.111Z,96.80
2023-04-12T07:07:13.990Z,96.59
2023-04-12T07:12:13.954Z,96.55
2023-04-12T07:17:13.866Z,96.65
2023-04-12T07:22:14.226Z,96.34
2023-04-12T07:27:13.715Z,96.65
2023-04-12T07:32:13.689Z,96.95
2023-04-12T07:37:13.577Z,97.02
2023-04-12T07:42:13.555Z,96.91
2023-04-12T07:47:13.510Z,97.12
2023-04-12T07:52:13.409Z,97.17
2023-04-12T07:57:13.350Z,97.17
2023-04-12T08:02:13.364Z,97.28
2023-04-12T08:07:13.170Z,97.69
2023-04-12T08:12:13.152Z,97.64
2023-04-12T08:17:13.076Z,97.49
2023-04-12T08:22:13.789Z,96.67
2023-04-12T08:27:12.947Z,96.98
2023-04-12T08:32:12.897Z,97.29
2023-04-12T08:37:12.804Z,96.98
2023-04-12T08:42:12.757Z,96.78
2023-04-12T08:47:12.713Z,97.08
2023-04-12T08:52:12.632Z,96.63
2023-04-12T08:57:12.547Z,96.58
2023-04-12T09:02:12.597Z,95.41
2023-04-12T09:07:12.421Z,95.41
2023-04-12T09:12:12.363Z,94.70
2023-04-12T09:17:12.321Z,95.31
2023-04-12T09:22:12.265Z,95.51
2023-04-12T09:27:12.186Z,95.17
2023-04-12T09:32:12.097Z,95.47
2023-04-12T09:37:12.017Z,94.75
2023-04-12T09:42:29.254Z,94.71
2023-04-12T09:47:12.865Z,93.89
2023-04-12T09:52:11.842Z,93.79
2023-04-12T09:57:11.763Z,94.24
2023-04-12T10:02:11.757Z,94.10
2023-04-12T10:07:13.188Z,93.38
2023-04-12T10:12:11.577Z,93.18
2023-04-12T10:17:11.520Z,93.79
2023-04-12T10:22:11.416Z,94.36
2023-04-12T10:27:11.362Z,95.12
2023-04-12T10:32:11.351Z,95.94
2023-04-12T10:37:11.213Z,96.45
2023-04-12T10:42:11.161Z,97.33
2023-04-12T10:47:11.109Z,97.12
2023-04-12T10:52:11.075Z,97.42
2023-04-12T10:57:10.960Z,96.67
2023-04-12T11:02:11.025Z,96.77
2023-04-12T11:07:10.853Z,95.96
2023-04-12T11:12:11.241Z,94.79
2023-04-12T11:17:10.732Z,93.44
2023-04-12T11:22:10.667Z,90.85
2023-04-12T11:27:10.557Z,91.46
2023-04-12T11:32:10.558Z,90.77
2023-04-12T11:37:10.452Z,86.68
2023-04-12T11:42:10.377Z,87.77
2023-04-12T11:47:10.334Z,81.39
2023-04-12T11:52:10.220Z,73.85
2023-04-12T11:57:10.173Z,71.63
2023-04-12T12:02:21.895Z,74.66
2023-04-12T12:07:11.337Z,80.38
2023-04-12T12:12:09.941Z,79.03
2023-04-12T12:17:09.915Z,78.75
2023-04-12T12:22:09.846Z,79.29
2023-04-12T12:27:09.829Z,81.18
2023-04-12T12:32:09.712Z,80.08
2023-04-12T12:37:09.632Z,82.01
2023-04-12T12:42:09.654Z,82.72
2023-04-12T12:47:14.178Z,82.78
2023-04-12T12:52:10.432Z,86.16
2023-04-12T12:57:09.389Z,88.71
2023-04-12T13:02:09.447Z,88.40
2023-04-12T13:07:09.248Z,87.67
2023-04-12T13:12:09.193Z,93.63
2023-04-12T13:17:09.089Z,95.16
2023-04-12T13:22:09.066Z,95.81
2023-04-12T13:27:08.953Z,96.48
2023-04-12T13:32:08.931Z,94.52
2023-04-12T13:37:08.850Z,89.23
2023-04-12T13:42:09.514Z,84.42
2023-04-12T13:47:08.694Z,87.57
2023-04-12T13:52:08.648Z,84.56
2023-04-12T13:57:08.557Z,87.06
2023-04-12T14:02:08.628Z,89.85
2023-04-12T14:07:08.485Z,88.87
2023-04-12T14:12:08.356Z,90.32
2023-04-12T14:17:08.388Z,92.04
2023-04-12T14:22:08.245Z,93.57
2023-04-12T14:27:08.152Z,95.72
2023-04-12T14:32:08.119Z,94.59
2023-04-12T14:37:08.026Z,92.76
2023-04-12T14:42:07.996Z,94.02
2023-04-12T14:47:07.881Z,89.81
2023-04-12T14:52:07.828Z,84.95
2023-04-12T14:57:07.789Z,84.74
2023-04-12T15:02:07.904Z,89.01
2023-04-12T15:07:07.626Z,89.22
2023-04-12T15:12:07.649Z,85.21
2023-04-12T15:17:07.595Z,86.41
2023-04-12T15:22:07.424Z,86.10
2023-04-12T15:27:07.384Z,84.72
2023-04-12T15:32:07.350Z,87.81
2023-04-12T15:37:07.254Z,88.63
2023-04-12T15:42:07.180Z,89.95
2023-04-12T15:47:11.391Z,91.03
2023-04-12T15:52:07.063Z,87.53
2023-04-12T15:57:06.963Z,82.59
2023-04-12T16:02:06.957Z,82.04
2023-04-12T16:07:06.897Z,76.65
2023-04-12T16:12:06.774Z,73.54
2023-04-12T16:17:06.697Z,75.02
2023-04-12T16:22:06.638Z,74.32
2023-04-12T16:27:06.564Z,75.37
2023-04-12T16:32:06.657Z,73.71
2023-04-12T16:37:06.880Z,70.48
2023-04-12T16:42:06.368Z,71.84
2023-04-12T16:47:06.352Z,76.36
2023-04-12T16:52:06.241Z,72.45
2023-04-12T16:57:06.193Z,71.19
2023-04-12T17:02:06.147Z,72.45
2023-04-12T17:07:06.059Z,76.30
2023-04-12T17:12:05.958Z,79.82
2023-04-12T17:17:06.615Z,77.70
2023-04-12T17:22:06.688Z,80.16
2023-04-12T17:27:05.795Z,81.43
2023-04-12T17:32:05.741Z,82.69
2023-04-12T17:37:05.675Z,83.04
2023-04-12T17:42:05.685Z,85.71
2023-04-12T17:47:05.551Z,87.08
2023-04-12T17:52:05.463Z,88.47
2023-04-12T17:57:05.421Z,86.63
2023-04-12T18:02:05.411Z,86.22
2023-04-12T18:07:05.269Z,89.84
2023-04-12T18:12:05.201Z,90.36
2023-04-12T18:17:05.180Z,90.81
2023-04-12T18:22:05.050Z,88.35
2023-04-12T18:27:05.080Z,90.40
2023-04-12T18:32:04.945Z,89.37
2023-04-12T18:37:04.879Z,90.40
2023-04-12T18:42:04.784Z,91.22
2023-04-12T18:47:04.780Z,90.75
2023-04-12T18:52:04.668Z,89.11
2023-04-12T18:57:04.619Z,89.01
2023-04-12T19:02:04.581Z,90.28
2023-04-12T19:07:04.453Z,90.73
2023-04-12T19:12:04.384Z,91.55
2023-04-12T19:17:04.363Z,90.78
2023-04-12T19:22:04.224Z,89.64
2023-04-12T19:27:04.240Z,88.20
2023-04-12T19:32:04.184Z,88.62
2023-04-12T19:37:04.125Z,90.61
2023-04-12T19:42:04.045Z,89.38
2023-04-12T19:47:03.903Z,91.02
2023-04-12T19:52:03.879Z,90.24
2023-04-12T19:57:03.818Z,89.87
2023-04-12T20:02:03.759Z,89.97
2023-04-12T20:07:03.736Z,89.83
2023-04-12T20:12:03.623Z,89.83
2023-04-12T20:17:03.646Z,88.56
2023-04-12T20:22:03.516Z,86.50
2023-04-12T20:27:03.464Z,84.34
2023-04-12T20:32:03.325Z,84.54
2023-04-12T20:37:03.290Z,84.13
2023-04-12T20:42:03.296Z,85.26
2023-04-12T20:47:03.229Z,85.36
2023-04-12T20:52:03.081Z,85.26
2023-04-12T20:57:03.043Z,85.36
2023-04-12T21:02:02.997Z,85.06
2023-04-12T21:07:03.269Z,85.30
2023-04-12T21:12:02.812Z,83.86
2023-04-12T21:17:02.821Z,84.07
2023-04-12T21:22:02.698Z,83.90
2023-04-12T21:27:02.619Z,83.70
2023-04-12T21:32:02.588Z,84.72
2023-04-12T21:37:02.587Z,85.34
2023-04-12T21:42:02.417Z,86.06
2023-04-12T21:47:02.366Z,88.06
2023-04-12T21:52:02.282Z,87.90
2023-04-12T21:57:02.248Z,89.65
2023-04-12T22:02:02.275Z,89.83
2023-04-12T22:07:02.151Z,90.55
2023-04-12T22:12:02.028Z,89.94
2023-04-12T22:17:02.002Z,89.62
2023-04-12T22:22:01.886Z,90.55
2023-04-12T22:27:01.864Z,89.62
2023-04-12T22:32:01.755Z,89.87
2023-04-12T22:37:01.691Z,90.49
2023-04-12T22:42:01.629Z,90.39
2023-04-12T22:47:01.640Z,90.49
2023-04-12T22:52:01.546Z,90.39
2023-04-12T22:57:01.450Z,90.49
2023-04-12T23:02:01.467Z,89.62
2023-04-12T23:07:01.308Z,88.80
2023-04-12T23:12:01.244Z,89.11
2023-04-12T23:17:01.203Z,88.39
2023-04-12T23:22:01.101Z,88.49
2023-04-12T23:27:01.078Z,88.43
2023-04-12T23:32:01.026Z,88.84
2023-04-12T23:37:00.943Z,89.15
2023-04-12T23:42:00.817Z,89.50
2023-04-12T23:47:00.809Z,89.09
2023-04-12T23:52:00.696Z,88.68
2023-04-12T23:57:00.652Z,87.54
